Time;durP1;ratioP1;P1;durP2;ratioP2;P2;SDS_P1;SDS_P2;PMS_P1;PMS_P2;Temp;Humidity;BMP_temperature;BMP_pressure;BME280_temperature;BME280_humidity;BME280_pressure;Samples;Min_cycle;Max_cycle;Signal;HPM_P1;HPM_P2
2022/09/08 00:00:45;;;;;;;16.67;12.63;;;17.30;99.90;;;;;;5054976;28;20187;-69
2022/09/08 00:03:14;;;;;;;16.58;12.80;;;17.40;99.90;;;;;;5055825;28;20179;-69
2022/09/08 00:05:55;;;;;;;15.23;12.27;;;17.30;99.90;;;;;;5061236;28;20190;-70
2022/09/08 00:08:21;;;;;;;15.75;12.60;;;17.30;99.90;;;;;;5096244;28;20189;-70
2022/09/08 00:10:53;;;;;;;16.33;11.95;;;17.20;99.90;;;;;;5096443;28;20169;-70
2022/09/08 00:13:20;;;;;;;15.77;11.98;;;17.20;99.90;;;;;;5096126;28;20215;-70
2022/09/08 00:15:47;;;;;;;14.52;12.30;;;17.20;99.90;;;;;;5095538;28;20560;-70
2022/09/08 00:18:13;;;;;;;16.48;12.52;;;17.30;99.90;;;;;;5095428;28;20232;-70
2022/09/08 00:20:39;;;;;;;15.43;13.20;;;17.20;99.90;;;;;;5095768;28;20166;-69
2022/09/08 00:23:05;;;;;;;16.45;13.45;;;17.20;99.90;;;;;;5094530;28;20652;-70
2022/09/08 00:25:31;;;;;;;16.08;13.70;;;17.20;99.90;;;;;;5096010;28;20205;-70
2022/09/08 00:27:57;;;;;;;17.73;13.48;;;17.10;99.90;;;;;;5083052;28;20698;-70
2022/09/08 00:30:23;;;;;;;17.92;13.32;;;17.10;99.90;;;;;;5075564;28;20181;-70
2022/09/08 00:32:49;;;;;;;17.17;14.68;;;17.10;99.90;;;;;;5075411;28;20208;-70
2022/09/08 00:35:18;;;;;;;17.75;14.15;;;17.10;99.90;;;;;;5075429;28;20634;-70
2022/09/08 00:37:48;;;;;;;16.20;13.90;;;17.10;99.90;;;;;;5095262;28;20204;-70
2022/09/08 00:40:15;;;;;;;15.63;13.95;;;17.00;99.90;;;;;;5094053;28;20698;-70
2022/09/08 00:42:42;;;;;;;17.60;14.77;;;17.10;99.90;;;;;;5094281;28;20571;-70
2022/09/08 00:45:17;;;;;;;17.33;14.80;;;17.10;99.90;;;;;;5095942;28;20554;-70
2022/09/08 00:47:51;;;;;;;19.17;14.88;;;17.00;99.90;;;;;;5093976;28;20295;-71
2022/09/08 00:50:21;;;;;;;18.77;14.82;;;17.00;99.90;;;;;;5093871;28;20212;-70
2022/09/08 00:53:00;;;;;;;19.30;15.60;;;16.90;99.90;;;;;;5095563;28;20169;-70
2022/09/08 00:55:30;;;;;;;17.58;13.77;;;16.80;99.90;;;;;;5095178;28;20522;-70
2022/09/08 00:57:56;;;;;;;18.67;15.55;;;16.90;99.90;;;;;;5084162;28;20201;-70
2022/09/08 01:00:22;;;;;;;18.67;14.98;;;17.00;99.90;;;;;;5073471;28;20174;-70
2022/09/08 01:02:47;;;;;;;20.35;14.32;;;17.00;99.90;;;;;;5074940;28;20243;-70
2022/09/08 01:05:18;;;;;;;20.25;14.82;;;17.00;99.90;;;;;;5074698;28;20209;-70
2022/09/08 01:13:37;;;;;;;17.55;14.13;;;17.00;99.90;;;;;;5095271;28;20167;-70
2022/09/08 01:16:06;;;;;;;17.42;14.10;;;16.80;99.90;;;;;;5095034;28;20193;-70
2022/09/08 01:18:36;;;;;;;17.98;13.90;;;16.90;99.90;;;;;;5094566;28;20215;-70
2022/09/08 01:21:07;;;;;;;17.77;13.05;;;16.90;99.90;;;;;;5094859;28;20153;-70
2022/09/08 01:24:04;;;;;;;16.42;12.38;;;16.90;99.90;;;;;;5094580;28;20185;-70
2022/09/08 01:26:35;;;;;;;14.82;12.55;;;16.90;99.90;;;;;;5095165;28;20157;-70
2022/09/08 01:29:04;;;;;;;15.73;12.32;;;17.00;99.90;;;;;;5073895;28;20549;-70
2022/09/08 01:31:36;;;;;;;18.27;13.32;;;17.00;99.90;;;;;;5074120;28;20193;-70
2022/09/08 01:34:02;;;;;;;17.85;12.82;;;17.10;99.90;;;;;;5073086;28;20654;-70
2022/09/08 01:36:28;;;;;;;15.27;13.60;;;17.10;99.90;;;;;;5083152;28;20191;-70
2022/09/08 01:38:54;;;;;;;15.95;13.60;;;17.10;99.90;;;;;;5094405;28;20196;-71
2022/09/08 01:41:20;;;;;;;16.42;14.20;;;17.00;99.90;;;;;;5095592;28;20185;-70
2022/09/08 01:43:45;;;;;;;18.23;14.50;;;17.00;99.90;;;;;;5094739;28;20242;-70
2022/09/08 01:46:11;;;;;;;16.95;13.90;;;17.00;99.90;;;;;;5094368;28;20586;-70
2022/09/08 01:48:38;;;;;;;14.98;13.27;;;17.00;99.90;;;;;;5094453;28;20556;-70
2022/09/08 01:51:06;;;;;;;15.00;13.40;;;17.00;99.90;;;;;;5092781;28;20172;-70
2022/09/08 01:53:32;;;;;;;14.70;12.77;;;17.00;99.90;;;;;;5094247;28;20181;-70
2022/09/08 01:55:58;;;;;;;15.55;13.38;;;17.10;99.90;;;;;;5094194;28;20192;-71
2022/09/08 01:58:25;;;;;;;16.40;13.10;;;17.10;99.90;;;;;;5078969;28;20201;-70
2022/09/08 02:00:51;;;;;;;14.43;12.93;;;17.10;99.90;;;;;;5072672;28;20184;-70
2022/09/08 02:03:17;;;;;;;15.02;13.40;;;17.10;99.90;;;;;;5073717;28;20186;-70
2022/09/08 02:05:44;;;;;;;17.90;13.88;;;17.20;99.90;;;;;;5076472;28;20192;-70
2022/09/08 02:08:11;;;;;;;20.00;12.68;;;17.20;99.90;;;;;;5093853;28;20242;-70
2022/09/08 02:10:38;;;;;;;14.38;12.88;;;17.20;99.90;;;;;;5092833;28;20177;-70
2022/09/08 02:13:05;;;;;;;15.32;13.65;;;17.20;99.90;;;;;;5092848;28;20268;-70
2022/09/08 02:15:31;;;;;;;15.32;13.70;;;17.20;99.90;;;;;;5094072;28;20629;-70
2022/09/08 02:17:58;;;;;;;18.33;14.02;;;17.20;99.90;;;;;;5093822;28;20211;-70
2022/09/08 02:20:25;;;;;;;16.92;13.93;;;17.20;99.90;;;;;;5092792;28;20176;-70
2022/09/08 02:22:52;;;;;;;17.40;14.93;;;17.30;99.90;;;;;;5092380;28;20559;-70
2022/09/08 02:25:19;;;;;;;18.02;14.65;;;17.30;99.90;;;;;;5094417;28;20192;-70
2022/09/08 02:27:45;;;;;;;16.42;14.70;;;17.30;99.90;;;;;;5083119;28;20197;-71
2022/09/08 02:30:11;;;;;;;15.90;14.25;;;17.30;99.90;;;;;;5072500;28;20327;-70
2022/09/08 02:32:37;;;;;;;18.25;14.82;;;17.20;99.90;;;;;;5073597;28;20181;-70
2022/09/08 02:35:03;;;;;;;19.92;15.50;;;17.20;99.90;;;;;;5073507;28;20185;-70
2022/09/08 02:37:29;;;;;;;18.27;15.00;;;17.10;99.90;;;;;;5089804;28;20209;-70
2022/09/08 02:39:55;;;;;;;18.15;14.68;;;17.10;99.90;;;;;;5093912;28;20193;-70
2022/09/08 02:42:23;;;;;;;20.75;15.40;;;17.10;99.90;;;;;;5098714;28;20180;-70
2022/09/08 02:44:49;;;;;;;17.80;14.13;;;17.00;99.90;;;;;;5096828;28;20706;-70
2022/09/08 02:47:14;;;;;;;16.73;13.13;;;17.00;99.90;;;;;;5097973;28;20275;-70
2022/09/08 02:49:40;;;;;;;15.88;13.98;;;17.00;99.90;;;;;;5098050;28;20169;-70
2022/09/08 02:52:06;;;;;;;17.02;14.55;;;16.90;99.90;;;;;;5097781;28;20513;-70
2022/09/08 02:54:31;;;;;;;20.85;15.10;;;16.90;99.90;;;;;;5098092;28;20181;-70
2022/09/08 02:56:57;;;;;;;20.10;15.07;;;16.70;99.90;;;;;;5096055;28;20193;-70
2022/09/08 02:59:23;;;;;;;17.75;15.00;;;16.70;99.90;;;;;;5078321;28;20201;-70
2022/09/08 03:01:49;;;;;;;16.63;14.82;;;16.60;99.90;;;;;;5078832;28;20289;-70
2022/09/08 03:04:15;;;;;;;19.75;15.30;;;16.60;99.90;;;;;;5078233;28;20271;-70
2022/09/08 03:06:43;;;;;;;19.10;16.48;;;16.60;99.90;;;;;;5087927;28;20697;-70
2022/09/08 03:09:09;;;;;;;19.80;16.83;;;16.60;99.90;;;;;;5096379;28;20174;-71
2022/09/08 03:11:34;;;;;;;20.88;18.63;;;16.60;99.90;;;;;;5097682;28;20247;-70
2022/09/08 03:14:00;;;;;;;23.38;17.45;;;16.50;99.90;;;;;;5097685;28;20201;-70
2022/09/08 03:16:27;;;;;;;22.08;18.38;;;16.40;99.90;;;;;;5096093;28;20675;-70
2022/09/08 03:18:53;;;;;;;18.92;15.68;;;16.40;99.90;;;;;;5097266;28;20208;-70
2022/09/08 03:21:20;;;;;;;21.08;17.38;;;16.50;99.90;;;;;;5096972;28;20169;-71
2022/09/08 03:23:47;;;;;;;17.90;15.98;;;16.50;99.90;;;;;;5097029;28;20245;-70
2022/09/08 03:26:16;;;;;;;18.67;16.67;;;16.60;99.90;;;;;;5095770;28;20180;-70
2022/09/08 03:28:43;;;;;;;18.48;16.50;;;16.70;99.90;;;;;;5078297;28;20651;-70
2022/09/08 03:31:14;;;;;;;19.27;15.45;;;16.70;99.90;;;;;;5076983;28;20249;-70
2022/09/08 03:33:40;;;;;;;18.38;15.55;;;16.80;99.90;;;;;;5075262;28;20624;-70
2022/09/08 03:36:08;;;;;;;19.60;15.48;;;16.80;99.90;;;;;;5081501;28;20637;-70
2022/09/08 03:38:34;;;;;;;19.20;15.70;;;16.80;99.90;;;;;;5096661;28;20221;-70
2022/09/08 03:41:01;;;;;;;19.02;14.57;;;16.90;99.90;;;;;;5095421;28;20268;-70
2022/09/08 03:43:27;;;;;;;17.80;15.18;;;16.90;99.90;;;;;;5096648;28;20177;-70
2022/09/08 03:45:52;;;;;;;19.25;15.07;;;16.90;99.90;;;;;;5095584;28;20599;-71
2022/09/08 03:48:18;;;;;;;17.50;15.35;;;17.00;99.90;;;;;;5096545;28;20598;-70
2022/09/08 03:50:44;;;;;;;19.50;15.05;;;17.00;99.90;;;;;;5096497;28;20174;-71
2022/09/08 03:53:11;;;;;;;16.83;14.10;;;17.00;99.90;;;;;;5096514;28;20237;-70
2022/09/08 03:55:40;;;;;;;18.25;13.98;;;17.10;99.90;;;;;;5095292;28;20188;-71
2022/09/08 03:58:06;;;;;;;16.55;13.70;;;17.10;99.90;;;;;;5082645;28;20202;-71
2022/09/08 04:00:32;;;;;;;16.52;14.50;;;17.20;99.90;;;;;;5076619;28;20182;-72
2022/09/08 04:02:58;;;;;;;16.08;14.48;;;17.10;99.90;;;;;;5075872;28;20181;-71
2022/09/08 04:05:25;;;;;;;18.83;14.70;;;17.20;99.90;;;;;;5076099;28;20674;-70
2022/09/08 04:07:51;;;;;;;17.38;15.18;;;17.20;99.90;;;;;;5096137;28;20556;-71
2022/09/08 04:10:19;;;;;;;19.13;14.18;;;17.10;99.90;;;;;;5094899;28;20177;-71
2022/09/08 04:12:45;;;;;;;17.85;14.60;;;17.00;99.90;;;;;;5094909;28;20318;-72
2022/09/08 04:15:11;;;;;;;15.93;13.82;;;17.00;99.90;;;;;;5095941;28;20218;-71
2022/09/08 04:17:37;;;;;;;18.50;15.27;;;16.90;99.90;;;;;;5096319;28;20197;-71
2022/09/08 04:20:05;;;;;;;17.75;15.85;;;16.90;99.90;;;;;;5096418;28;20177;-71
2022/09/08 04:22:30;;;;;;;21.98;16.25;;;16.80;99.90;;;;;;5095698;28;20204;-70
2022/09/08 04:24:56;;;;;;;22.77;17.88;;;16.70;99.90;;;;;;5095881;28;20677;-70
2022/09/08 04:27:22;;;;;;;20.55;16.90;;;16.60;99.90;;;;;;5089470;28;20204;-71
2022/09/08 04:29:50;;;;;;;15.90;11.60;;;16.60;99.90;;;;;;5075839;28;20177;-71
2022/09/08 04:32:16;;;;;;;15.57;10.82;;;16.40;99.90;;;;;;5075398;28;20181;-70
2022/09/08 04:34:41;;;;;;;11.48;9.15;;;16.20;99.90;;;;;;5074046;28;20241;-70
2022/09/08 04:37:07;;;;;;;12.45;8.82;;;16.20;99.90;;;;;;5089701;28;20208;-70
2022/09/08 04:39:33;;;;;;;11.73;8.70;;;16.20;99.90;;;;;;5095453;28;20231;-70
2022/09/08 04:41:59;;;;;;;14.18;9.05;;;16.20;99.90;;;;;;5094291;28;20185;-70
2022/09/08 04:44:25;;;;;;;10.48;7.32;;;16.20;99.90;;;;;;5095305;28;20280;-71
2022/09/08 04:46:51;;;;;;;10.25;6.50;;;16.10;99.90;;;;;;5095546;28;20196;-70
2022/09/08 04:49:17;;;;;;;8.40;5.75;;;16.00;99.90;;;;;;5095206;28;20184;-70
2022/09/08 04:51:43;;;;;;;7.90;6.30;;;15.90;99.90;;;;;;5093672;28;20290;-70
2022/09/08 04:54:09;;;;;;;9.10;6.38;;;15.90;99.90;;;;;;5095656;28;20633;-70
2022/09/08 04:56:36;;;;;;;13.57;6.38;;;15.90;99.90;;;;;;5093898;28;20278;-70
2022/09/08 04:59:03;;;;;;;10.95;5.95;;;15.80;99.90;;;;;;5075097;28;20232;-73
2022/09/08 05:01:32;;;;;;;8.25;6.10;;;15.70;99.90;;;;;;5074868;28;20227;-71
2022/09/08 05:04:01;;;;;;;9.98;6.40;;;15.80;99.90;;;;;;5074173;28;20561;-67
2022/09/08 05:06:28;;;;;;;9.88;7.00;;;15.70;99.90;;;;;;5083398;28;20193;-68
2022/09/08 05:08:56;;;;;;;10.07;6.63;;;15.70;99.90;;;;;;5095137;28;20641;-69
2022/09/08 05:11:23;;;;;;;8.73;6.60;;;15.70;99.90;;;;;;5095595;28;20172;-66
2022/09/08 05:13:49;;;;;;;12.05;7.40;;;15.70;99.90;;;;;;5094512;28;20545;-66
2022/09/08 05:16:21;;;;;;;16.23;7.43;;;15.70;99.90;;;;;;5093530;28;20251;-66
2022/09/08 05:18:52;;;;;;;14.55;7.28;;;15.60;99.90;;;;;;5094716;28;20189;-67
2022/09/08 05:21:18;;;;;;;11.75;7.50;;;15.70;99.90;;;;;;5094815;28;20241;-67
2022/09/08 05:23:45;;;;;;;12.10;8.07;;;15.70;99.90;;;;;;5094715;28;20197;-66
2022/09/08 05:26:13;;;;;;;12.95;7.57;;;15.60;99.90;;;;;;5093989;28;20205;-66
2022/09/08 05:28:41;;;;;;;12.27;8.45;;;15.60;99.90;;;;;;5076852;28;20300;-66
2022/09/08 05:31:08;;;;;;;15.63;8.27;;;15.60;99.90;;;;;;5074905;28;20208;-67
2022/09/08 05:33:34;;;;;;;11.77;8.30;;;15.60;99.90;;;;;;5074385;28;20642;-68
2022/09/08 05:36:00;;;;;;;10.85;8.40;;;15.60;99.90;;;;;;5078628;28;20180;-66
2022/09/08 05:38:27;;;;;;;17.50;8.50;;;15.60;99.90;;;;;;5094583;28;20201;-67
2022/09/08 05:40:53;;;;;;;12.23;9.18;;;15.60;99.90;;;;;;5094656;28;20184;-66
2022/09/08 05:43:19;;;;;;;15.98;9.32;;;15.70;99.90;;;;;;5094827;28;20185;-67
2022/09/08 05:45:46;;;;;;;10.88;8.80;;;15.70;99.90;;;;;;5094388;28;20314;-67
2022/09/08 05:48:13;;;;;;;11.52;8.95;;;15.70;99.90;;;;;;5094006;28;20192;-66
2022/09/08 05:50:42;;;;;;;11.43;9.30;;;15.60;99.90;;;;;;5094096;28;20191;-67
2022/09/08 05:53:09;;;;;;;16.20;9.30;;;15.60;99.90;;;;;;5094069;28;20169;-68
2022/09/08 05:55:34;;;;;;;15.02;9.45;;;15.60;99.90;;;;;;5094295;28;20173;-67
2022/09/08 05:58:00;;;;;;;14.18;9.40;;;15.60;99.90;;;;;;5080806;28;20213;-67
2022/09/08 06:00:26;;;;;;;13.98;8.73;;;15.60;99.90;;;;;;5072308;28;20165;-67
2022/09/08 06:02:53;;;;;;;13.07;9.45;;;15.70;99.90;;;;;;5073499;28;20235;-67
2022/09/08 06:05:19;;;;;;;16.50;9.43;;;15.70;99.90;;;;;;5072474;28;20573;-67
2022/09/08 06:07:46;;;;;;;16.83;9.68;;;15.80;99.90;;;;;;5093317;28;20234;-67
2022/09/08 06:10:12;;;;;;;15.32;10.18;;;15.80;99.90;;;;;;5092602;28;20177;-72
2022/09/08 06:12:38;;;;;;;16.00;10.15;;;15.80;99.90;;;;;;5093977;28;20173;-67
2022/09/08 06:15:04;;;;;;;12.23;9.40;;;15.80;99.90;;;;;;5092814;28;20184;-67
2022/09/08 06:17:31;;;;;;;14.05;9.57;;;15.90;99.90;;;;;;5093295;28;20197;-68
2022/09/08 06:19:57;;;;;;;15.20;9.48;;;15.90;99.90;;;;;;5092580;28;20191;-69
2022/09/08 06:22:23;;;;;;;12.48;8.88;;;15.90;99.90;;;;;;5093464;28;20201;-69
2022/09/08 06:24:49;;;;;;;10.88;8.23;;;15.90;99.90;;;;;;5093758;28;20583;-69
2022/09/08 06:27:36;;;;;;;13.73;8.70;;;15.90;99.90;;;;;;5088251;28;20194;-69
2022/09/08 06:30:12;;;;;;;13.25;8.57;;;15.80;99.90;;;;;;5072036;28;20227;-70
2022/09/08 06:32:55;;;;;;;15.15;9.10;;;15.80;99.90;;;;;;5071866;28;20222;-69
2022/09/08 06:35:27;;;;;;;16.10;9.60;;;15.80;99.90;;;;;;5073876;28;20170;-69
2022/09/08 06:37:59;;;;;;;14.98;9.23;;;15.80;99.90;;;;;;5052980;28;20569;-70
2022/09/08 06:40:35;;;;;;;16.58;9.85;;;15.70;99.90;;;;;;5051775;28;20201;-70
2022/09/08 06:43:12;;;;;;;14.68;10.07;;;15.70;99.90;;;;;;5052030;28;20170;-70
2022/09/08 06:45:56;;;;;;;14.38;10.10;;;15.70;99.90;;;;;;5053155;28;20182;-70
2022/09/08 06:48:31;;;;;;;14.35;10.10;;;15.70;99.90;;;;;;5052931;28;20641;-70
2022/09/08 06:51:28;;;;;;;15.50;9.85;;;15.70;99.90;;;;;;5051842;28;20167;-70
2022/09/08 06:54:08;;;;;;;16.02;9.82;;;15.70;99.90;;;;;;5053065;28;20708;-70
2022/09/08 06:56:47;;;;;;;20.08;10.02;;;15.80;99.90;;;;;;5051897;28;20631;-70
2022/09/08 06:59:38;;;;;;;17.02;9.55;;;15.80;99.90;;;;;;5053382;28;20158;-72
2022/09/08 07:02:07;;;;;;;19.42;10.55;;;15.90;99.90;;;;;;5051560;28;20194;-72
2022/09/08 07:04:51;;;;;;;15.73;10.23;;;16.00;99.90;;;;;;5052918;28;20198;-72
2022/09/08 07:07:50;;;;;;;14.23;10.07;;;16.00;99.90;;;;;;5083346;28;20197;-72
2022/09/08 07:10:30;;;;;;;14.70;8.27;;;16.10;99.90;;;;;;5092689;28;20645;-72
2022/09/08 07:13:15;;;;;;;16.52;10.23;;;16.10;99.90;;;;;;5093306;28;20161;-72
2022/09/08 07:16:08;;;;;;;12.32;9.25;;;16.10;99.90;;;;;;5093283;28;20621;-72
2022/09/08 07:19:00;;;;;;;13.30;9.23;;;16.10;99.90;;;;;;5091622;28;20232;-72
2022/09/08 07:21:28;;;;;;;12.02;9.18;;;16.10;99.90;;;;;;5093419;28;20544;-72
2022/09/08 07:23:57;;;;;;;12.60;8.90;;;16.10;99.90;;;;;;5092932;28;20197;-72
2022/09/08 07:26:36;;;;;;;13.52;9.40;;;16.10;99.90;;;;;;5095488;28;20176;-72
2022/09/08 07:29:07;;;;;;;16.83;10.35;;;16.10;99.90;;;;;;5056627;28;20161;-72
2022/09/08 07:31:39;;;;;;;16.55;10.23;;;16.20;99.90;;;;;;5055153;28;20281;-72
2022/09/08 07:34:18;;;;;;;14.10;10.70;;;16.20;99.90;;;;;;5055146;28;20198;-72
2022/09/08 07:37:11;;;;;;;21.33;11.05;;;16.10;99.90;;;;;;5078992;28;20609;-72
2022/09/08 07:39:47;;;;;;;18.00;11.50;;;16.10;99.90;;;;;;5096485;28;20315;-73
2022/09/08 07:42:15;;;;;;;18.08;11.05;;;16.20;99.90;;;;;;5095429;28;20218;-72
2022/09/08 07:44:41;;;;;;;16.50;11.40;;;16.20;99.90;;;;;;5097124;28;20208;-72
2022/09/08 07:47:36;;;;;;;14.50;10.55;;;16.20;99.90;;;;;;5097164;28;20191;-72
2022/09/08 07:50:16;;;;;;;13.20;8.93;;;16.30;99.90;;;;;;5095578;28;20633;-72
2022/09/08 07:53:00;;;;;;;18.38;10.75;;;16.30;99.90;;;;;;5096617;28;20157;-72
2022/09/08 07:55:37;;;;;;;17.98;9.75;;;16.40;99.90;;;;;;5095227;28;20174;-72
2022/09/08 07:58:06;;;;;;;19.55;10.52;;;16.40;99.90;;;;;;5084513;28;20665;-72
2022/09/08 08:01:02;;;;;;;13.75;10.02;;;16.40;99.90;;;;;;5076032;28;20178;-72
2022/09/08 08:03:38;;;;;;;17.70;9.93;;;16.50;99.90;;;;;;5075851;28;20181;-72
2022/09/08 08:06:20;;;;;;;15.50;10.00;;;16.50;99.90;;;;;;5082074;28;20180;-72
2022/09/08 08:09:23;;;;;;;16.92;10.32;;;16.50;99.90;;;;;;5095886;28;20562;-72
2022/09/08 08:12:11;;;;;;;17.45;10.48;;;16.50;99.90;;;;;;5094643;28;20529;-72
2022/09/08 08:14:46;;;;;;;15.88;10.15;;;16.50;99.90;;;;;;5091363;28;20185;-72
2022/09/08 08:17:20;;;;;;;19.20;10.90;;;16.50;99.90;;;;;;5096437;28;20567;-72
2022/09/08 08:19:58;;;;;;;13.73;10.50;;;16.40;99.90;;;;;;5095991;28;20629;-72
2022/09/08 08:22:41;;;;;;;19.40;10.95;;;16.30;99.90;;;;;;5094414;28;20275;-72
2022/09/08 08:25:29;;;;;;;15.75;10.57;;;16.30;99.90;;;;;;5094624;28;20601;-72
2022/09/08 08:28:09;;;;;;;18.00;11.27;;;16.40;99.90;;;;;;5084971;28;20210;-72
2022/09/08 08:30:44;;;;;;;18.30;11.45;;;16.40;99.90;;;;;;5074522;28;20181;-72
2022/09/08 08:33:18;;;;;;;17.17;11.25;;;16.30;99.90;;;;;;5074246;28;20196;-72
2022/09/08 08:35:58;;;;;;;19.35;11.45;;;16.30;99.90;;;;;;5077244;28;20185;-72
2022/09/08 08:38:31;;;;;;;17.40;11.93;;;16.30;99.90;;;;;;5094424;28;20203;-72
2022/09/08 08:40:59;;;;;;;18.52;12.27;;;16.30;99.90;;;;;;5095698;28;20533;-72
2022/09/08 08:43:59;;;;;;;19.40;12.52;;;16.30;99.90;;;;;;5096025;28;20596;-72
2022/09/08 08:46:31;;;;;;;17.42;11.65;;;16.40;99.90;;;;;;5094307;28;20637;-72
2022/09/08 08:49:25;;;;;;;21.63;13.45;;;16.40;99.90;;;;;;5094100;28;20177;-72
2022/09/08 08:52:12;;;;;;;20.20;13.00;;;16.40;99.90;;;;;;5095956;28;20521;-72
2022/09/08 08:54:43;;;;;;;20.58;13.13;;;16.40;99.90;;;;;;5094129;28;20165;-72
2022/09/08 08:57:34;;;;;;;21.83;13.32;;;16.40;99.90;;;;;;5089709;28;20300;-72
2022/09/08 09:00:14;;;;;;;25.10;13.00;;;16.50;99.90;;;;;;5075372;28;20625;-72
2022/09/08 09:02:43;;;;;;;19.48;12.25;;;16.50;99.90;;;;;;5075256;28;20193;-72
2022/09/08 09:05:46;;;;;;;17.33;12.45;;;16.40;99.90;;;;;;5074934;28;20194;-72
2022/09/08 09:08:36;;;;;;;13.55;9.05;;;16.40;99.90;;;;;;5053423;28;20202;-72
2022/09/08 09:11:17;;;;;;;11.10;8.30;;;16.30;99.90;;;;;;5055020;28;20229;-71
2022/09/08 09:14:14;;;;;;;11.88;9.25;;;16.10;99.90;;;;;;5054850;28;20178;-71
2022/09/08 09:17:20;;;;;;;14.40;9.15;;;16.00;99.90;;;;;;5051906;28;20341;-71
2022/09/08 09:20:11;;;;;;;13.02;8.80;;;15.90;99.90;;;;;;5053822;28;20170;-71
2022/09/08 09:23:04;;;;;;;13.55;8.80;;;16.00;99.90;;;;;;5053936;28;20203;-71
2022/09/08 09:25:42;;;;;;;15.10;9.30;;;16.00;99.90;;;;;;5054198;28;20205;-71
2022/09/08 09:28:17;;;;;;;11.57;8.60;;;16.00;99.90;;;;;;5068000;28;20251;-71
2022/09/08 09:31:26;;;;;;;10.00;7.88;;;16.10;99.90;;;;;;5074954;28;20165;-71
2022/09/08 09:34:19;;;;;;;9.15;6.78;;;16.10;99.90;;;;;;5074615;28;20181;-71
2022/09/08 09:36:54;;;;;;;12.43;7.53;;;16.10;99.90;;;;;;5086850;28;20176;-70
2022/09/08 09:39:42;;;;;;;11.55;7.25;;;16.20;99.90;;;;;;5094349;28;20727;-70
2022/09/08 09:42:27;;;;;;;9.73;6.85;;;16.10;99.90;;;;;;5093700;28;20185;-71
2022/09/08 09:45:11;;;;;;;12.25;6.95;;;16.00;99.90;;;;;;5094532;28;20712;-71
2022/09/08 09:48:14;;;;;;;9.77;6.47;;;16.00;99.90;;;;;;5094103;28;20206;-69
2022/09/08 09:50:51;;;;;;;13.38;7.00;;;16.00;99.90;;;;;;5093410;28;20597;-70
2022/09/08 09:53:44;;;;;;;8.77;6.38;;;16.10;99.90;;;;;;5094659;28;20515;-70
2022/09/08 09:56:28;;;;;;;10.80;6.20;;;16.00;99.90;;;;;;5092890;28;20260;-72
2022/09/08 09:59:43;;;;;;;10.70;6.72;;;16.00;99.90;;;;;;5075118;28;20291;-72
2022/09/08 10:02:30;;;;;;;12.85;7.80;;;16.10;99.90;;;;;;5060315;28;20193;-72
2022/09/08 10:05:12;;;;;;;11.35;8.43;;;16.30;99.90;;;;;;5072421;28;20204;-72
2022/09/08 10:07:44;;;;;;;17.33;9.35;;;16.40;99.90;;;;;;5092577;28;20242;-72
2022/09/08 10:10:25;;;;;;;13.18;7.18;;;16.40;99.90;;;;;;5092779;28;20175;-71
2022/09/08 10:12:54;;;;;;;12.32;7.30;;;16.30;99.90;;;;;;5092648;28;20255;-71
2022/09/08 10:15:19;;;;;;;8.18;5.78;;;16.30;99.90;;;;;;5092450;28;20184;-72
2022/09/08 10:18:10;;;;;;;10.27;5.50;;;16.30;99.90;;;;;;5092326;28;20197;-71
2022/09/08 10:20:59;;;;;;;7.88;5.18;;;16.40;99.90;;;;;;5094266;28;20607;-71
2022/09/08 10:23:44;;;;;;;7.70;4.93;;;16.20;99.90;;;;;;5093982;28;20189;-71
2022/09/08 10:26:43;;;;;;;6.50;4.97;;;16.10;99.90;;;;;;5092655;28;20196;-70
2022/09/08 10:29:18;;;;;;;11.00;5.72;;;16.20;99.90;;;;;;5093724;28;20256;-70
2022/09/08 10:31:50;;;;;;;8.00;5.57;;;16.30;99.90;;;;;;5092615;28;20184;-71
2022/09/08 10:34:37;;;;;;;11.15;5.38;;;16.40;99.90;;;;;;5092071;28;20268;-68
2022/09/08 10:37:35;;;;;;;8.90;5.10;;;16.50;99.90;;;;;;5079203;28;20200;-68
2022/09/08 10:40:43;;;;;;;10.75;5.97;;;16.60;99.90;;;;;;5071873;28;20199;-68
2022/09/08 10:43:32;;;;;;;6.53;5.78;;;16.90;99.90;;;;;;5073291;28;20205;-68
2022/09/08 10:46:43;;;;;;;7.07;5.78;;;16.90;99.90;;;;;;5071781;28;20211;-68
2022/09/08 10:49:32;;;;;;;8.45;5.22;;;17.30;99.90;;;;;;5073052;28;20186;-68
2022/09/08 10:52:43;;;;;;;11.40;4.45;;;17.40;99.90;;;;;;5071866;28;20178;-68
2022/09/08 10:55:11;;;;;;;8.45;4.20;;;17.40;99.90;;;;;;5073583;28;20174;-69
2022/09/08 10:57:55;;;;;;;5.13;3.53;;;17.40;99.90;;;;;;5072954;28;20227;-68
2022/09/08 11:00:23;;;;;;;6.60;3.80;;;17.40;99.90;;;;;;5073456;28;20166;-68
2022/09/08 11:03:22;;;;;;;7.45;4.18;;;17.70;99.90;;;;;;5076896;28;20205;-68
2022/09/08 11:05:50;;;;;;;6.00;3.60;;;17.80;99.90;;;;;;5079120;28;20205;-68
2022/09/08 11:08:37;;;;;;;4.50;3.50;;;18.10;99.90;;;;;;5095509;28;20616;-68
2022/09/08 11:11:29;;;;;;;4.13;3.67;;;18.30;99.90;;;;;;5095848;28;20185;-68
2022/09/08 11:14:21;;;;;;;5.35;3.53;;;18.40;99.90;;;;;;5096749;28;20193;-68
2022/09/08 11:17:14;;;;;;;5.47;3.75;;;18.30;99.90;;;;;;5096891;28;20192;-68
2022/09/08 11:19:55;;;;;;;6.03;3.63;;;18.50;99.90;;;;;;5096892;28;20181;-68
2022/09/08 11:22:40;;;;;;;5.70;3.28;;;18.80;99.90;;;;;;5095666;28;20510;-69
2022/09/08 11:25:20;;;;;;;4.50;3.00;;;19.10;99.90;;;;;;5095640;28;20192;-69
2022/09/08 11:27:58;;;;;;;7.35;3.13;;;19.20;99.90;;;;;;5085810;28;20205;-68
2022/09/08 11:30:48;;;;;;;4.55;2.70;;;19.20;99.90;;;;;;5075402;28;20549;-68
2022/09/08 11:33:38;;;;;;;3.42;2.65;;;19.00;99.90;;;;;;5075910;28;20665;-68
2022/09/08 11:36:09;;;;;;;6.18;2.85;;;18.80;99.90;;;;;;5082359;28;20185;-68
2022/09/08 11:39:12;;;;;;;4.00;2.30;;;18.90;99.90;;;;;;5095073;28;20196;-68
2022/09/08 11:42:29;;;;;;;3.95;2.50;;;19.00;99.90;;;;;;5095218;28;20271;-68
2022/09/08 11:45:15;;;;;;;5.10;2.42;;;18.90;99.90;;;;;;5083720;28;20223;-68
2022/09/08 11:48:18;;;;;;;5.13;2.30;;;18.90;99.90;;;;;;5096313;28;20185;-68
2022/09/08 11:50:53;;;;;;;5.80;2.30;;;18.90;99.90;;;;;;5096517;28;20161;-68
2022/09/08 11:53:56;;;;;;;5.20;2.58;;;19.20;99.90;;;;;;5096221;28;20198;-68
2022/09/08 11:56:24;;;;;;;2.05;1.85;;;19.60;99.90;;;;;;5096348;28;20535;-68
2022/09/08 11:58:56;;;;;;;4.07;2.42;;;20.00;99.90;;;;;;5076473;28;20201;-68
2022/09/08 12:01:31;;;;;;;2.25;2.05;;;20.50;99.90;;;;;;5076536;28;20257;-69
2022/09/08 12:04:24;;;;;;;3.58;2.00;;;20.60;99.90;;;;;;5076785;28;20181;-68
2022/09/08 12:06:52;;;;;;;3.08;2.00;;;20.40;99.90;;;;;;5089457;28;20170;-71
2022/09/08 12:09:24;;;;;;;4.28;2.00;;;20.70;99.90;;;;;;5095525;28;20608;-71
2022/09/08 12:12:17;;;;;;;3.30;1.88;;;20.80;99.90;;;;;;5095304;28;20279;-71
2022/09/08 12:14:50;;;;;;;2.58;2.00;;;20.90;99.90;;;;;;5095063;28;20215;-71
2022/09/08 12:17:32;;;;;;;6.13;2.20;;;20.90;99.90;;;;;;5096347;28;20197;-71
2022/09/08 12:20:28;;;;;;;2.30;1.80;;;20.80;99.90;;;;;;5096408;28;20153;-71
2022/09/08 12:23:15;;;;;;;3.08;1.90;;;20.60;99.90;;;;;;5096405;28;20533;-71
2022/09/08 12:26:19;;;;;;;6.20;1.75;;;20.80;99.90;;;;;;5096054;28;20192;-72
2022/09/08 12:29:09;;;;;;;2.90;1.73;;;20.90;99.90;;;;;;5093696;28;20726;-71
2022/09/08 12:31:46;;;;;;;3.47;1.63;;;21.50;99.90;;;;;;5091363;28;20161;-71
2022/09/08 12:34:34;;;;;;;2.60;1.60;;;21.60;99.90;;;;;;5056112;28;20216;-70
2022/09/08 12:37:49;;;;;;;2.13;1.50;;;21.70;99.90;;;;;;5081936;28;20299;-71
2022/09/08 12:40:37;;;;;;;3.03;1.73;;;21.50;99.90;;;;;;5077414;28;20207;-70
2022/09/08 12:43:17;;;;;;;2.55;1.75;;;21.30;99.90;;;;;;5095877;28;20169;-70
2022/09/08 12:46:16;;;;;;;5.10;1.80;;;21.80;99.90;;;;;;5095844;28;20181;-71
2022/09/08 12:49:07;;;;;;;4.95;1.50;;;21.80;99.90;;;;;;5095548;28;20185;-70
2022/09/08 12:51:35;;;;;;;3.70;1.80;;;21.80;99.90;;;;;;5095933;28;20157;-70
2022/09/08 12:54:26;;;;;;;2.42;1.52;;;21.90;99.90;;;;;;5094111;28;20204;-70
2022/09/08 12:57:06;;;;;;;2.65;1.50;;;22.30;99.90;;;;;;5092154;28;20185;-70
2022/09/08 12:59:34;;;;;;;4.72;1.60;;;22.40;99.90;;;;;;5074292;28;20252;-71
2022/09/08 13:02:29;;;;;;;5.57;1.88;;;22.10;99.90;;;;;;5068723;28;20190;-71
2022/09/08 13:05:39;;;;;;;3.13;1.70;;;21.60;99.90;;;;;;5053905;28;20213;-71
2022/09/08 13:08:44;;;;;;;2.28;1.50;;;21.30;99.90;;;;;;5064851;28;20276;-71
2022/09/08 13:11:40;;;;;;;1.85;1.50;;;20.80;99.90;;;;;;5036038;28;20181;-71
2022/09/08 13:14:09;;;;;;;2.55;1.50;;;20.60;99.90;;;;;;5055490;28;20187;-70
2022/09/08 13:16:56;;;;;;;2.42;1.70;;;20.40;99.90;;;;;;5054980;28;20171;-70
2022/09/08 13:19:54;;;;;;;2.95;1.63;;;20.30;99.90;;;;;;5053355;28;20185;-70
2022/09/08 13:22:49;;;;;;;5.15;1.77;;;20.10;99.90;;;;;;5055193;28;20186;-70